sensor_id;sensor_type;location;lat;lon;timestamp;temperature;humidity
55598;DHT22;41463;53.186;5.552;2023-02-23T00:01:28;7.80;99.90
55598;DHT22;41463;53.186;5.552;2023-02-23T00:03:56;7.80;99.90
55598;DHT22;41463;53.186;5.552;2023-02-23T00:06:23;7.90;99.90
55598;DHT22;41463;53.186;5.552;2023-02-23T00:08:49;8.00;99.90
55598;DHT22;41463;53.186;5.552;2023-02-23T00:11:17;8.00;99.90
55598;DHT22;41463;53.186;5.552;2023-02-23T00:13:44;8.00;99.90
55598;DHT22;41463;53.186;5.552;2023-02-23T00:16:15;8.00;99.90
55598;DHT22;41463;53.186;5.552;2023-02-23T00:18:43;8.00;99.90
55598;DHT22;41463;53.186;5.552;2023-02-23T00:21:24;7.90;99.90
55598;DHT22;41463;53.186;5.552;2023-02-23T00:23:55;7.90;99.90
55598;DHT22;41463;53.186;5.552;2023-02-23T00:26:24;7.80;99.90
55598;DHT22;41463;53.186;5.552;2023-02-23T00:28:54;8.00;99.90
55598;DHT22;41463;53.186;5.552;2023-02-23T00:31:21;7.90;99.90
55598;DHT22;41463;53.186;5.552;2023-02-23T00:33:54;8.00;99.90
55598;DHT22;41463;53.186;5.552;2023-02-23T00:36:31;7.90;99.90
55598;DHT22;41463;53.186;5.552;2023-02-23T00:38:59;7.80;99.90
55598;DHT22;41463;53.186;5.552;2023-02-23T00:41:26;7.90;99.90
55598;DHT22;41463;53.186;5.552;2023-02-23T00:43:59;8.00;99.90
55598;DHT22;41463;53.186;5.552;2023-02-23T00:46:28;7.90;99.90
55598;DHT22;41463;53.186;5.552;2023-02-23T00:48:55;7.80;99.90
55598;DHT22;41463;53.186;5.552;2023-02-23T00:51:23;7.80;99.90
55598;DHT22;41463;53.186;5.552;2023-02-23T00:53:52;8.00;99.90
55598;DHT22;41463;53.186;5.552;2023-02-23T00:56:19;7.90;99.90
55598;DHT22;41463;53.186;5.552;2023-02-23T00:58:46;7.80;99.90
55598;DHT22;41463;53.186;5.552;2023-02-23T01:01:13;7.80;99.90
55598;DHT22;41463;53.186;5.552;2023-02-23T01:03:41;7.90;99.90
55598;DHT22;41463;53.186;5.552;2023-02-23T01:06:09;7.90;99.90
55598;DHT22;41463;53.186;5.552;2023-02-23T01:08:38;7.80;99.90
55598;DHT22;41463;53.186;5.552;2023-02-23T01:11:07;7.80;99.90
55598;DHT22;41463;53.186;5.552;2023-02-23T01:13:35;7.90;99.90
55598;DHT22;41463;53.186;5.552;2023-02-23T01:16:10;7.90;99.90
55598;DHT22;41463;53.186;5.552;2023-02-23T01:18:36;7.90;99.90
55598;DHT22;41463;53.186;5.552;2023-02-23T01:21:04;7.90;99.90
55598;DHT22;41463;53.186;5.552;2023-02-23T01:23:32;7.90;99.90
55598;DHT22;41463;53.186;5.552;2023-02-23T01:25:58;7.80;99.90
55598;DHT22;41463;53.186;5.552;2023-02-23T01:28:24;7.80;99.90
55598;DHT22;41463;53.186;5.552;2023-02-23T01:30:49;7.90;99.90
55598;DHT22;41463;53.186;5.552;2023-02-23T01:33:15;7.80;99.90
55598;DHT22;41463;53.186;5.552;2023-02-23T01:35:41;7.70;99.90
55598;DHT22;41463;53.186;5.552;2023-02-23T01:38:09;7.70;99.90
55598;DHT22;41463;53.186;5.552;2023-02-23T01:40:35;7.60;99.90
55598;DHT22;41463;53.186;5.552;2023-02-23T01:43:16;7.70;99.90
55598;DHT22;41463;53.186;5.552;2023-02-23T01:45:44;7.60;99.90
55598;DHT22;41463;53.186;5.552;2023-02-23T01:48:14;7.60;99.90
55598;DHT22;41463;53.186;5.552;2023-02-23T01:51:01;7.60;99.90
55598;DHT22;41463;53.186;5.552;2023-02-23T01:53:30;7.50;99.90
55598;DHT22;41463;53.186;5.552;2023-02-23T01:56:05;7.60;99.90
55598;DHT22;41463;53.186;5.552;2023-02-23T01:58:37;7.60;99.90
55598;DHT22;41463;53.186;5.552;2023-02-23T02:01:04;7.60;99.90
55598;DHT22;41463;53.186;5.552;2023-02-23T02:03:42;7.50;99.90
55598;DHT22;41463;53.186;5.552;2023-02-23T02:06:12;7.50;99.90
55598;DHT22;41463;53.186;5.552;2023-02-23T02:08:42;7.50;99.90
55598;DHT22;41463;53.186;5.552;2023-02-23T02:11:12;7.60;99.90
55598;DHT22;41463;53.186;5.552;2023-02-23T02:14:11;7.50;99.90
55598;DHT22;41463;53.186;5.552;2023-02-23T02:25:56;7.10;99.90
55598;DHT22;41463;53.186;5.552;2023-02-23T02:39:17;6.90;99.90
55598;DHT22;41463;53.186;5.552;2023-02-23T02:42:28;6.70;99.90
55598;DHT22;41463;53.186;5.552;2023-02-23T02:45:17;6.80;99.90
55598;DHT22;41463;53.186;5.552;2023-02-23T02:47:57;6.60;99.90
55598;DHT22;41463;53.186;5.552;2023-02-23T02:50:44;6.60;99.90
55598;DHT22;41463;53.186;5.552;2023-02-23T02:53:18;6.60;99.90
55598;DHT22;41463;53.186;5.552;2023-02-23T02:55:46;6.70;99.90
55598;DHT22;41463;53.186;5.552;2023-02-23T02:58:14;6.70;99.90
55598;DHT22;41463;53.186;5.552;2023-02-23T03:00:52;6.80;99.90
55598;DHT22;41463;53.186;5.552;2023-02-23T03:06:28;6.80;99.90
55598;DHT22;41463;53.186;5.552;2023-02-23T03:18:44;6.90;99.90
55598;DHT22;41463;53.186;5.552;2023-02-23T03:24:29;6.90;99.90
55598;DHT22;41463;53.186;5.552;2023-02-23T03:27:28;7.10;99.90
55598;DHT22;41463;53.186;5.552;2023-02-23T03:33:46;7.00;99.90
55598;DHT22;41463;53.186;5.552;2023-02-23T03:36:36;7.00;99.90
55598;DHT22;41463;53.186;5.552;2023-02-23T03:39:29;7.00;99.90
55598;DHT22;41463;53.186;5.552;2023-02-23T03:42:18;7.20;99.90
55598;DHT22;41463;53.186;5.552;2023-02-23T03:45:08;7.20;99.90
55598;DHT22;41463;53.186;5.552;2023-02-23T03:47:54;7.20;99.90
55598;DHT22;41463;53.186;5.552;2023-02-23T03:50:46;7.20;99.90
55598;DHT22;41463;53.186;5.552;2023-02-23T03:54:22;7.20;99.90
55598;DHT22;41463;53.186;5.552;2023-02-23T03:56:50;7.20;99.90
55598;DHT22;41463;53.186;5.552;2023-02-23T03:59:42;7.10;99.90
55598;DHT22;41463;53.186;5.552;2023-02-23T04:02:30;7.10;99.90
55598;DHT22;41463;53.186;5.552;2023-02-23T04:05:17;7.10;99.90
55598;DHT22;41463;53.186;5.552;2023-02-23T04:08:06;7.10;99.90
55598;DHT22;41463;53.186;5.552;2023-02-23T04:10:59;7.20;99.90
55598;DHT22;41463;53.186;5.552;2023-02-23T04:13:48;7.20;99.90
55598;DHT22;41463;53.186;5.552;2023-02-23T04:16:16;7.20;99.90
55598;DHT22;41463;53.186;5.552;2023-02-23T04:18:42;7.20;99.90
55598;DHT22;41463;53.186;5.552;2023-02-23T04:21:08;7.20;99.90
55598;DHT22;41463;53.186;5.552;2023-02-23T04:23:34;7.20;99.90
55598;DHT22;41463;53.186;5.552;2023-02-23T04:26:00;7.20;99.90
55598;DHT22;41463;53.186;5.552;2023-02-23T04:28:27;7.20;99.90
55598;DHT22;41463;53.186;5.552;2023-02-23T04:30:53;7.20;99.90
55598;DHT22;41463;53.186;5.552;2023-02-23T04:33:20;7.30;99.90
55598;DHT22;41463;53.186;5.552;2023-02-23T04:35:47;7.30;99.90
55598;DHT22;41463;53.186;5.552;2023-02-23T04:38:13;7.30;99.90
55598;DHT22;41463;53.186;5.552;2023-02-23T04:40:38;7.30;99.90
55598;DHT22;41463;53.186;5.552;2023-02-23T04:43:04;7.30;99.90
55598;DHT22;41463;53.186;5.552;2023-02-23T04:45:30;7.30;99.90
55598;DHT22;41463;53.186;5.552;2023-02-23T04:47:56;7.30;99.90
55598;DHT22;41463;53.186;5.552;2023-02-23T04:50:21;7.30;99.90
55598;DHT22;41463;53.186;5.552;2023-02-23T04:52:47;7.30;99.90
55598;DHT22;41463;53.186;5.552;2023-02-23T04:55:17;7.30;99.90
55598;DHT22;41463;53.186;5.552;2023-02-23T04:57:43;7.30;99.90
55598;DHT22;41463;53.186;5.552;2023-02-23T05:00:10;7.40;99.90
55598;DHT22;41463;53.186;5.552;2023-02-23T05:02:36;7.40;99.90
55598;DHT22;41463;53.186;5.552;2023-02-23T05:05:02;7.40;99.90
55598;DHT22;41463;53.186;5.552;2023-02-23T05:07:28;7.40;99.90
55598;DHT22;41463;53.186;5.552;2023-02-23T05:09:53;7.60;99.90
55598;DHT22;41463;53.186;5.552;2023-02-23T05:12:19;7.60;99.90
55598;DHT22;41463;53.186;5.552;2023-02-23T05:14:45;7.70;99.90
55598;DHT22;41463;53.186;5.552;2023-02-23T05:17:11;7.70;99.90
55598;DHT22;41463;53.186;5.552;2023-02-23T05:19:36;7.60;99.90
55598;DHT22;41463;53.186;5.552;2023-02-23T05:22:02;7.70;99.90
55598;DHT22;41463;53.186;5.552;2023-02-23T05:24:28;7.60;99.90
55598;DHT22;41463;53.186;5.552;2023-02-23T05:26:54;7.60;99.90
55598;DHT22;41463;53.186;5.552;2023-02-23T05:29:20;7.50;99.90
55598;DHT22;41463;53.186;5.552;2023-02-23T05:31:45;7.40;99.90
55598;DHT22;41463;53.186;5.552;2023-02-23T05:34:13;7.50;99.90
55598;DHT22;41463;53.186;5.552;2023-02-23T05:36:41;7.50;99.90
55598;DHT22;41463;53.186;5.552;2023-02-23T05:39:07;7.40;99.90
55598;DHT22;41463;53.186;5.552;2023-02-23T05:41:33;7.50;99.90
55598;DHT22;41463;53.186;5.552;2023-02-23T05:43:59;7.50;99.90
55598;DHT22;41463;53.186;5.552;2023-02-23T05:46:26;7.50;99.90
55598;DHT22;41463;53.186;5.552;2023-02-23T05:48:59;7.40;99.90
55598;DHT22;41463;53.186;5.552;2023-02-23T05:51:27;7.40;99.90
55598;DHT22;41463;53.186;5.552;2023-02-23T05:53:53;7.50;99.90
55598;DHT22;41463;53.186;5.552;2023-02-23T05:56:20;7.40;99.90
55598;DHT22;41463;53.186;5.552;2023-02-23T05:58:47;7.40;99.90
55598;DHT22;41463;53.186;5.552;2023-02-23T06:01:14;7.40;99.90
55598;DHT22;41463;53.186;5.552;2023-02-23T06:03:40;7.40;99.90
55598;DHT22;41463;53.186;5.552;2023-02-23T06:06:05;7.40;99.90
55598;DHT22;41463;53.186;5.552;2023-02-23T06:08:31;7.40;99.90
55598;DHT22;41463;53.186;5.552;2023-02-23T06:10:57;7.40;99.90
55598;DHT22;41463;53.186;5.552;2023-02-23T06:13:23;7.50;99.90
55598;DHT22;41463;53.186;5.552;2023-02-23T06:15:48;7.50;99.90
55598;DHT22;41463;53.186;5.552;2023-02-23T06:18:14;7.40;99.90
55598;DHT22;41463;53.186;5.552;2023-02-23T06:20:41;7.40;99.90
55598;DHT22;41463;53.186;5.552;2023-02-23T06:23:07;7.40;99.90
55598;DHT22;41463;53.186;5.552;2023-02-23T06:25:32;7.50;99.90
55598;DHT22;41463;53.186;5.552;2023-02-23T06:27:58;7.50;99.90
55598;DHT22;41463;53.186;5.552;2023-02-23T06:30:24;7.50;99.90
55598;DHT22;41463;53.186;5.552;2023-02-23T06:32:50;7.50;99.90
55598;DHT22;41463;53.186;5.552;2023-02-23T06:35:16;7.50;99.90
55598;DHT22;41463;53.186;5.552;2023-02-23T06:37:42;7.50;99.90
55598;DHT22;41463;53.186;5.552;2023-02-23T06:40:08;7.50;99.90
55598;DHT22;41463;53.186;5.552;2023-02-23T06:42:34;7.50;99.90
55598;DHT22;41463;53.186;5.552;2023-02-23T06:45:04;7.50;99.90
55598;DHT22;41463;53.186;5.552;2023-02-23T06:47:30;7.50;99.90
55598;DHT22;41463;53.186;5.552;2023-02-23T06:49:56;7.50;99.90
55598;DHT22;41463;53.186;5.552;2023-02-23T06:52:24;7.50;99.90
55598;DHT22;41463;53.186;5.552;2023-02-23T06:54:50;7.50;99.90
55598;DHT22;41463;53.186;5.552;2023-02-23T06:57:16;7.50;99.90
55598;DHT22;41463;53.186;5.552;2023-02-23T06:59:42;7.50;99.90
55598;DHT22;41463;53.186;5.552;2023-02-23T07:02:11;7.60;99.90
55598;DHT22;41463;53.186;5.552;2023-02-23T07:04:37;7.60;99.90
55598;DHT22;41463;53.186;5.552;2023-02-23T07:07:02;7.50;99.90
55598;DHT22;41463;53.186;5.552;2023-02-23T07:09:28;7.60;99.90
55598;DHT22;41463;53.186;5.552;2023-02-23T07:11:54;7.50;99.90
55598;DHT22;41463;53.186;5.552;2023-02-23T07:14:20;7.60;99.90
55598;DHT22;41463;53.186;5.552;2023-02-23T07:16:46;7.50;99.90
55598;DHT22;41463;53.186;5.552;2023-02-23T07:19:12;7.70;99.90
55598;DHT22;41463;53.186;5.552;2023-02-23T07:21:37;7.60;99.90
55598;DHT22;41463;53.186;5.552;2023-02-23T07:24:03;7.60;99.90
55598;DHT22;41463;53.186;5.552;2023-02-23T07:26:31;7.60;99.90
55598;DHT22;41463;53.186;5.552;2023-02-23T07:28:58;7.60;99.90
55598;DHT22;41463;53.186;5.552;2023-02-23T07:31:24;7.60;99.90
55598;DHT22;41463;53.186;5.552;2023-02-23T07:33:51;7.60;99.90
55598;DHT22;41463;53.186;5.552;2023-02-23T07:36:20;7.60;99.90
55598;DHT22;41463;53.186;5.552;2023-02-23T07:38:45;7.70;99.90
55598;DHT22;41463;53.186;5.552;2023-02-23T07:41:11;7.70;99.90
55598;DHT22;41463;53.186;5.552;2023-02-23T07:43:37;7.70;99.90
55598;DHT22;41463;53.186;5.552;2023-02-23T07:46:03;7.70;99.90
55598;DHT22;41463;53.186;5.552;2023-02-23T07:48:29;7.70;99.90
55598;DHT22;41463;53.186;5.552;2023-02-23T07:50:55;7.70;99.90
55598;DHT22;41463;53.186;5.552;2023-02-23T07:53:22;7.70;99.90
55598;DHT22;41463;53.186;5.552;2023-02-23T07:55:56;7.80;99.90
55598;DHT22;41463;53.186;5.552;2023-02-23T07:58:24;7.80;99.90
55598;DHT22;41463;53.186;5.552;2023-02-23T08:00:49;7.70;99.90
55598;DHT22;41463;53.186;5.552;2023-02-23T08:03:15;7.70;99.90
55598;DHT22;41463;53.186;5.552;2023-02-23T08:05:41;7.70;99.90
55598;DHT22;41463;53.186;5.552;2023-02-23T08:08:09;7.70;99.90
55598;DHT22;41463;53.186;5.552;2023-02-23T08:10:36;7.70;99.90
55598;DHT22;41463;53.186;5.552;2023-02-23T08:13:02;7.70;99.90
55598;DHT22;41463;53.186;5.552;2023-02-23T08:15:28;7.60;99.90
55598;DHT22;41463;53.186;5.552;2023-02-23T08:17:54;7.70;99.90
55598;DHT22;41463;53.186;5.552;2023-02-23T08:20:20;7.70;99.90
55598;DHT22;41463;53.186;5.552;2023-02-23T08:22:45;7.70;99.90
55598;DHT22;41463;53.186;5.552;2023-02-23T08:25:11;7.70;99.90
55598;DHT22;41463;53.186;5.552;2023-02-23T08:27:38;7.70;99.90
55598;DHT22;41463;53.186;5.552;2023-02-23T08:30:04;7.70;99.90
55598;DHT22;41463;53.186;5.552;2023-02-23T08:32:34;7.80;99.90
55598;DHT22;41463;53.186;5.552;2023-02-23T08:35:00;7.80;99.90
55598;DHT22;41463;53.186;5.552;2023-02-23T08:37:28;7.80;99.90
55598;DHT22;41463;53.186;5.552;2023-02-23T08:39:54;7.80;99.90
55598;DHT22;41463;53.186;5.552;2023-02-23T08:42:20;7.80;99.90
55598;DHT22;41463;53.186;5.552;2023-02-23T08:44:46;7.90;99.90
55598;DHT22;41463;53.186;5.552;2023-02-23T08:47:14;8.00;99.90
55598;DHT22;41463;53.186;5.552;2023-02-23T08:49:41;8.00;99.90
55598;DHT22;41463;53.186;5.552;2023-02-23T08:52:07;8.10;99.90
55598;DHT22;41463;53.186;5.552;2023-02-23T08:54:33;8.00;99.90
55598;DHT22;41463;53.186;5.552;2023-02-23T08:56:58;7.90;99.90
55598;DHT22;41463;53.186;5.552;2023-02-23T08:59:24;7.90;99.90
55598;DHT22;41463;53.186;5.552;2023-02-23T09:01:51;8.00;99.90
55598;DHT22;41463;53.186;5.552;2023-02-23T09:04:17;8.00;99.90
55598;DHT22;41463;53.186;5.552;2023-02-23T09:06:44;8.00;99.90
55598;DHT22;41463;53.186;5.552;2023-02-23T09:09:11;8.00;99.90
55598;DHT22;41463;53.186;5.552;2023-02-23T09:11:37;8.00;99.90
55598;DHT22;41463;53.186;5.552;2023-02-23T09:14:02;7.80;99.90
55598;DHT22;41463;53.186;5.552;2023-02-23T09:16:28;7.80;99.90
55598;DHT22;41463;53.186;5.552;2023-02-23T09:18:54;7.90;99.90
55598;DHT22;41463;53.186;5.552;2023-02-23T09:21:20;7.90;99.90
55598;DHT22;41463;53.186;5.552;2023-02-23T09:23:50;7.90;99.90
55598;DHT22;41463;53.186;5.552;2023-02-23T09:26:17;7.90;99.90
55598;DHT22;41463;53.186;5.552;2023-02-23T09:28:44;7.90;99.90
55598;DHT22;41463;53.186;5.552;2023-02-23T09:31:17;8.00;99.90
55598;DHT22;41463;53.186;5.552;2023-02-23T09:33:46;8.10;99.90
55598;DHT22;41463;53.186;5.552;2023-02-23T09:36:14;8.10;99.90
55598;DHT22;41463;53.186;5.552;2023-02-23T09:38:45;8.20;99.90
55598;DHT22;41463;53.186;5.552;2023-02-23T09:44:01;8.20;99.90
55598;DHT22;41463;53.186;5.552;2023-02-23T09:46:38;8.00;99.90
55598;DHT22;41463;53.186;5.552;2023-02-23T09:49:14;8.00;99.90
55598;DHT22;41463;53.186;5.552;2023-02-23T09:51:46;7.90;99.90
55598;DHT22;41463;53.186;5.552;2023-02-23T09:54:15;7.90;99.90
55598;DHT22;41463;53.186;5.552;2023-02-23T09:56:48;7.90;99.90
55598;DHT22;41463;53.186;5.552;2023-02-23T09:59:18;7.90;99.90
55598;DHT22;41463;53.186;5.552;2023-02-23T10:17:58;8.90;99.90
55598;DHT22;41463;53.186;5.552;2023-02-23T10:20:52;8.90;99.90
55598;DHT22;41463;53.186;5.552;2023-02-23T10:23:30;8.90;99.90
55598;DHT22;41463;53.186;5.552;2023-02-23T10:25:58;8.90;99.90
55598;DHT22;41463;53.186;5.552;2023-02-23T10:28:26;9.00;99.90
55598;DHT22;41463;53.186;5.552;2023-02-23T10:30:54;9.10;99.90
55598;DHT22;41463;53.186;5.552;2023-02-23T10:33:40;9.20;99.90
55598;DHT22;41463;53.186;5.552;2023-02-23T10:36:18;9.20;99.90
55598;DHT22;41463;53.186;5.552;2023-02-23T10:38:50;9.30;99.90
55598;DHT22;41463;53.186;5.552;2023-02-23T10:41:16;9.30;99.90
55598;DHT22;41463;53.186;5.552;2023-02-23T10:43:41;9.30;99.90
55598;DHT22;41463;53.186;5.552;2023-02-23T10:46:16;9.30;99.90
55598;DHT22;41463;53.186;5.552;2023-02-23T10:48:46;9.30;99.90
55598;DHT22;41463;53.186;5.552;2023-02-23T10:51:19;9.30;99.90
55598;DHT22;41463;53.186;5.552;2023-02-23T10:53:46;9.20;99.90
55598;DHT22;41463;53.186;5.552;2023-02-23T10:56:17;9.30;99.90
55598;DHT22;41463;53.186;5.552;2023-02-23T10:58:47;9.30;99.90
55598;DHT22;41463;53.186;5.552;2023-02-23T11:01:38;9.10;99.90
55598;DHT22;41463;53.186;5.552;2023-02-23T11:04:24;8.90;99.90
55598;DHT22;41463;53.186;5.552;2023-02-23T11:07:06;8.80;99.90
55598;DHT22;41463;53.186;5.552;2023-02-23T11:09:33;8.70;99.90
55598;DHT22;41463;53.186;5.552;2023-02-23T11:12:00;8.60;99.90
55598;DHT22;41463;53.186;5.552;2023-02-23T11:14:32;8.60;99.90
55598;DHT22;41463;53.186;5.552;2023-02-23T11:16:59;8.50;99.90
55598;DHT22;41463;53.186;5.552;2023-02-23T11:21:57;7.70;99.90
55598;DHT22;41463;53.186;5.552;2023-02-23T11:24:33;8.40;99.90
55598;DHT22;41463;53.186;5.552;2023-02-23T11:27:02;8.40;99.90
55598;DHT22;41463;53.186;5.552;2023-02-23T11:29:44;8.40;99.90
55598;DHT22;41463;53.186;5.552;2023-02-23T11:32:32;8.30;99.90
55598;DHT22;41463;53.186;5.552;2023-02-23T11:35:26;8.30;99.90
55598;DHT22;41463;53.186;5.552;2023-02-23T11:37:52;8.40;99.90
55598;DHT22;41463;53.186;5.552;2023-02-23T11:40:30;8.40;99.90
55598;DHT22;41463;53.186;5.552;2023-02-23T11:43:17;8.40;99.90
55598;DHT22;41463;53.186;5.552;2023-02-23T11:51:07;8.40;99.90
55598;DHT22;41463;53.186;5.552;2023-02-23T11:53:44;8.30;99.90
55598;DHT22;41463;53.186;5.552;2023-02-23T11:56:18;8.30;99.90
55598;DHT22;41463;53.186;5.552;2023-02-23T11:58:49;8.10;99.90
55598;DHT22;41463;53.186;5.552;2023-02-23T12:01:19;8.20;99.90
55598;DHT22;41463;53.186;5.552;2023-02-23T12:03:48;8.30;99.90
55598;DHT22;41463;53.186;5.552;2023-02-23T12:06:39;8.10;99.90
55598;DHT22;41463;53.186;5.552;2023-02-23T12:09:25;8.10;99.90
55598;DHT22;41463;53.186;5.552;2023-02-23T12:12:08;8.00;99.90
55598;DHT22;41463;53.186;5.552;2023-02-23T12:17:44;7.90;99.90
55598;DHT22;41463;53.186;5.552;2023-02-23T12:20:15;8.10;99.90
55598;DHT22;41463;53.186;5.552;2023-02-23T12:22:50;8.00;99.90
55598;DHT22;41463;53.186;5.552;2023-02-23T12:28:09;8.00;99.90
55598;DHT22;41463;53.186;5.552;2023-02-23T12:30:59;8.10;99.90
55598;DHT22;41463;53.186;5.552;2023-02-23T12:33:33;8.00;99.90
55598;DHT22;41463;53.186;5.552;2023-02-23T12:38:50;7.90;99.90
55598;DHT22;41463;53.186;5.552;2023-02-23T12:41:42;7.90;99.90
55598;DHT22;41463;53.186;5.552;2023-02-23T12:47:11;7.90;99.90
55598;DHT22;41463;53.186;5.552;2023-02-23T12:49:51;7.90;99.90
55598;DHT22;41463;53.186;5.552;2023-02-23T12:52:23;8.00;99.90
55598;DHT22;41463;53.186;5.552;2023-02-23T12:54:50;7.80;99.90
55598;DHT22;41463;53.186;5.552;2023-02-23T12:57:29;7.80;99.90
55598;DHT22;41463;53.186;5.552;2023-02-23T13:02:51;7.90;99.90
55598;DHT22;41463;53.186;5.552;2023-02-23T13:05:25;8.00;99.90
55598;DHT22;41463;53.186;5.552;2023-02-23T13:10:33;8.10;99.90
55598;DHT22;41463;53.186;5.552;2023-02-23T13:18:51;8.00;99.90
55598;DHT22;41463;53.186;5.552;2023-02-23T13:21:25;8.00;99.90
55598;DHT22;41463;53.186;5.552;2023-02-23T13:26:54;7.80;99.90
55598;DHT22;41463;53.186;5.552;2023-02-23T13:29:35;7.80;99.90
55598;DHT22;41463;53.186;5.552;2023-02-23T13:32:12;7.80;99.90
55598;DHT22;41463;53.186;5.552;2023-02-23T13:34:59;7.70;99.90
55598;DHT22;41463;53.186;5.552;2023-02-23T13:40:35;7.60;99.90
55598;DHT22;41463;53.186;5.552;2023-02-23T13:43:12;7.50;99.90
55598;DHT22;41463;53.186;5.552;2023-02-23T13:56:58;7.50;99.90
55598;DHT22;41463;53.186;5.552;2023-02-23T13:59:29;7.50;99.90
55598;DHT22;41463;53.186;5.552;2023-02-23T14:02:17;7.40;99.90
55598;DHT22;41463;53.186;5.552;2023-02-23T14:04:51;7.40;99.90
55598;DHT22;41463;53.186;5.552;2023-02-23T14:07:22;7.30;99.90
55598;DHT22;41463;53.186;5.552;2023-02-23T14:09:55;7.30;99.90
55598;DHT22;41463;53.186;5.552;2023-02-23T14:12:24;7.20;99.90
55598;DHT22;41463;53.186;5.552;2023-02-23T14:23:47;7.40;99.90
55598;DHT22;41463;53.186;5.552;2023-02-23T14:29:24;7.30;99.90
55598;DHT22;41463;53.186;5.552;2023-02-23T14:37:36;7.50;99.90
55598;DHT22;41463;53.186;5.552;2023-02-23T14:40:10;7.50;99.90
55598;DHT22;41463;53.186;5.552;2023-02-23T14:42:38;7.80;99.90
55598;DHT22;41463;53.186;5.552;2023-02-23T14:48:04;8.00;99.90
55598;DHT22;41463;53.186;5.552;2023-02-23T14:50:33;8.10;99.90
55598;DHT22;41463;53.186;5.552;2023-02-23T14:52:59;8.10;99.90
55598;DHT22;41463;53.186;5.552;2023-02-23T14:55:38;8.10;99.90
55598;DHT22;41463;53.186;5.552;2023-02-23T14:58:33;8.10;99.90
55598;DHT22;41463;53.186;5.552;2023-02-23T15:01:51;8.10;99.90
55598;DHT22;41463;53.186;5.552;2023-02-23T15:04:22;8.20;99.90
55598;DHT22;41463;53.186;5.552;2023-02-23T15:07:04;8.00;99.90
55598;DHT22;41463;53.186;5.552;2023-02-23T15:12:06;9.40;99.90
55598;DHT22;41463;53.186;5.552;2023-02-23T15:14:46;8.10;99.90
55598;DHT22;41463;53.186;5.552;2023-02-23T15:17:23;8.10;99.90
55598;DHT22;41463;53.186;5.552;2023-02-23T15:19:53;8.00;99.90
55598;DHT22;41463;53.186;5.552;2023-02-23T15:22:29;8.20;99.90
55598;DHT22;41463;53.186;5.552;2023-02-23T15:25:17;6.80;99.90
55598;DHT22;41463;53.186;5.552;2023-02-23T15:27:54;8.00;99.90
55598;DHT22;41463;53.186;5.552;2023-02-23T15:30:27;7.90;99.90
55598;DHT22;41463;53.186;5.552;2023-02-23T15:33:12;7.90;99.90
55598;DHT22;41463;53.186;5.552;2023-02-23T15:36:08;7.70;99.90
55598;DHT22;41463;53.186;5.552;2023-02-23T15:38:48;7.60;99.90
55598;DHT22;41463;53.186;5.552;2023-02-23T15:41:28;7.60;99.90
55598;DHT22;41463;53.186;5.552;2023-02-23T15:44:04;7.50;99.90
55598;DHT22;41463;53.186;5.552;2023-02-23T15:46:32;7.60;99.90
55598;DHT22;41463;53.186;5.552;2023-02-23T15:49:00;7.50;99.90
55598;DHT22;41463;53.186;5.552;2023-02-23T15:54:02;7.50;99.90
55598;DHT22;41463;53.186;5.552;2023-02-23T15:56:33;7.60;99.90
55598;DHT22;41463;53.186;5.552;2023-02-23T15:59:08;7.60;99.90
55598;DHT22;41463;53.186;5.552;2023-02-23T16:01:42;7.40;99.90
55598;DHT22;41463;53.186;5.552;2023-02-23T16:06:39;7.30;99.90
55598;DHT22;41463;53.186;5.552;2023-02-23T16:12:12;7.00;99.90
55598;DHT22;41463;53.186;5.552;2023-02-23T16:14:53;7.00;99.90
55598;DHT22;41463;53.186;5.552;2023-02-23T16:20:18;7.00;99.90
55598;DHT22;41463;53.186;5.552;2023-02-23T16:22:46;7.10;99.90
55598;DHT22;41463;53.186;5.552;2023-02-23T16:25:16;7.20;99.90
55598;DHT22;41463;53.186;5.552;2023-02-23T16:27:45;8.00;99.90
55598;DHT22;41463;53.186;5.552;2023-02-23T16:30:17;7.10;99.90
55598;DHT22;41463;53.186;5.552;2023-02-23T16:32:47;7.00;99.90
55598;DHT22;41463;53.186;5.552;2023-02-23T16:35:17;7.90;99.90
55598;DHT22;41463;53.186;5.552;2023-02-23T16:37:56;7.00;99.90
55598;DHT22;41463;53.186;5.552;2023-02-23T16:40:22;7.00;99.90
55598;DHT22;41463;53.186;5.552;2023-02-23T16:42:48;6.90;99.90
55598;DHT22;41463;53.186;5.552;2023-02-23T16:45:15;6.80;99.90
55598;DHT22;41463;53.186;5.552;2023-02-23T16:47:43;6.60;99.90
55598;DHT22;41463;53.186;5.552;2023-02-23T16:50:23;6.60;99.90
55598;DHT22;41463;53.186;5.552;2023-02-23T16:52:52;6.40;99.90
55598;DHT22;41463;53.186;5.552;2023-02-23T16:55:23;6.30;99.90
55598;DHT22;41463;53.186;5.552;2023-02-23T16:57:55;6.30;99.90
55598;DHT22;41463;53.186;5.552;2023-02-23T17:00:25;6.40;99.90
55598;DHT22;41463;53.186;5.552;2023-02-23T17:02:51;6.40;99.90
55598;DHT22;41463;53.186;5.552;2023-02-23T17:05:20;6.50;99.90
55598;DHT22;41463;53.186;5.552;2023-02-23T17:07:49;6.50;99.90
55598;DHT22;41463;53.186;5.552;2023-02-23T17:10:18;6.50;99.90
55598;DHT22;41463;53.186;5.552;2023-02-23T17:13:01;6.60;99.90
55598;DHT22;41463;53.186;5.552;2023-02-23T17:15:36;6.50;99.90
55598;DHT22;41463;53.186;5.552;2023-02-23T17:18:03;6.70;99.90
55598;DHT22;41463;53.186;5.552;2023-02-23T17:20:29;6.40;99.90
55598;DHT22;41463;53.186;5.552;2023-02-23T17:22:59;6.30;99.90
55598;DHT22;41463;53.186;5.552;2023-02-23T17:25:26;6.30;99.90
55598;DHT22;41463;53.186;5.552;2023-02-23T17:27:53;6.30;99.90
55598;DHT22;41463;53.186;5.552;2023-02-23T17:30:19;6.20;99.90
55598;DHT22;41463;53.186;5.552;2023-02-23T17:32:45;6.00;99.90
55598;DHT22;41463;53.186;5.552;2023-02-23T17:35:11;5.90;99.90
55598;DHT22;41463;53.186;5.552;2023-02-23T17:37:37;5.70;99.90
55598;DHT22;41463;53.186;5.552;2023-02-23T17:40:15;5.60;99.90
55598;DHT22;41463;53.186;5.552;2023-02-23T17:42:41;5.60;99.90
55598;DHT22;41463;53.186;5.552;2023-02-23T17:45:07;5.40;99.90
55598;DHT22;41463;53.186;5.552;2023-02-23T17:47:35;5.30;99.90
55598;DHT22;41463;53.186;5.552;2023-02-23T17:50:04;5.30;99.90
55598;DHT22;41463;53.186;5.552;2023-02-23T17:52:30;5.40;99.90
55598;DHT22;41463;53.186;5.552;2023-02-23T17:54:56;5.40;99.90
55598;DHT22;41463;53.186;5.552;2023-02-23T17:57:23;5.30;99.90
55598;DHT22;41463;53.186;5.552;2023-02-23T17:59:49;5.50;99.90
55598;DHT22;41463;53.186;5.552;2023-02-23T18:02:17;5.30;99.90
55598;DHT22;41463;53.186;5.552;2023-02-23T18:04:48;5.40;99.90
55598;DHT22;41463;53.186;5.552;2023-02-23T18:07:15;5.20;99.90
55598;DHT22;41463;53.186;5.552;2023-02-23T18:09:42;5.10;99.90
55598;DHT22;41463;53.186;5.552;2023-02-23T18:12:08;5.20;99.90
55598;DHT22;41463;53.186;5.552;2023-02-23T18:14:34;5.10;99.90
55598;DHT22;41463;53.186;5.552;2023-02-23T18:17:03;5.10;99.90
55598;DHT22;41463;53.186;5.552;2023-02-23T18:19:29;5.10;99.90
55598;DHT22;41463;53.186;5.552;2023-02-23T18:21:55;5.10;99.90
55598;DHT22;41463;53.186;5.552;2023-02-23T18:24:26;5.50;99.90
55598;DHT22;41463;53.186;5.552;2023-02-23T18:26:52;5.00;99.90
55598;DHT22;41463;53.186;5.552;2023-02-23T18:29:26;5.00;99.90
55598;DHT22;41463;53.186;5.552;2023-02-23T18:31:54;5.00;99.90